sensor_id;sensor_type;location;lat;lon;timestamp;P1;durP1;ratioP1;P2;durP2;ratioP2
24086;SDS011;22893;50.572;7.234;2023-02-15T00:02:04;3.05;;;2.08;;
24086;SDS011;22893;50.572;7.234;2023-02-15T00:04:31;4.83;;;2.20;;
24086;SDS011;22893;50.572;7.234;2023-02-15T00:07:14;4.42;;;2.77;;
24086;SDS011;22893;50.572;7.234;2023-02-15T00:09:47;5.35;;;2.80;;
24086;SDS011;22893;50.572;7.234;2023-02-15T00:12:15;5.70;;;2.30;;
24086;SDS011;22893;50.572;7.234;2023-02-15T00:14:42;4.33;;;2.30;;
24086;SDS011;22893;50.572;7.234;2023-02-15T00:17:10;6.50;;;3.00;;
24086;SDS011;22893;50.572;7.234;2023-02-15T00:19:37;7.67;;;1.95;;
24086;SDS011;22893;50.572;7.234;2023-02-15T00:22:05;3.65;;;2.12;;
24086;SDS011;22893;50.572;7.234;2023-02-15T00:24:33;5.25;;;2.85;;
24086;SDS011;22893;50.572;7.234;2023-02-15T00:27:01;5.33;;;2.12;;
24086;SDS011;22893;50.572;7.234;2023-02-15T00:29:28;4.78;;;2.27;;
24086;SDS011;22893;50.572;7.234;2023-02-15T00:31:57;4.97;;;2.27;;
24086;SDS011;22893;50.572;7.234;2023-02-15T00:34:25;6.95;;;2.42;;
24086;SDS011;22893;50.572;7.234;2023-02-15T00:36:54;3.58;;;2.20;;
24086;SDS011;22893;50.572;7.234;2023-02-15T00:39:21;4.50;;;2.47;;
24086;SDS011;22893;50.572;7.234;2023-02-15T00:41:50;5.50;;;2.67;;
24086;SDS011;22893;50.572;7.234;2023-02-15T00:44:17;5.60;;;2.30;;
24086;SDS011;22893;50.572;7.234;2023-02-15T00:46:45;4.42;;;2.12;;
24086;SDS011;22893;50.572;7.234;2023-02-15T00:49:12;4.37;;;2.33;;
24086;SDS011;22893;50.572;7.234;2023-02-15T00:51:40;5.85;;;2.65;;
24086;SDS011;22893;50.572;7.234;2023-02-15T00:54:08;5.70;;;2.50;;
24086;SDS011;22893;50.572;7.234;2023-02-15T00:56:35;3.72;;;2.17;;
24086;SDS011;22893;50.572;7.234;2023-02-15T00:59:03;4.87;;;2.58;;
24086;SDS011;22893;50.572;7.234;2023-02-15T01:01:30;5.03;;;2.20;;
24086;SDS011;22893;50.572;7.234;2023-02-15T01:03:58;3.12;;;1.75;;
24086;SDS011;22893;50.572;7.234;2023-02-15T01:06:25;4.12;;;2.37;;
24086;SDS011;22893;50.572;7.234;2023-02-15T01:08:53;3.35;;;1.65;;
24086;SDS011;22893;50.572;7.234;2023-02-15T01:11:21;3.55;;;2.08;;
24086;SDS011;22893;50.572;7.234;2023-02-15T01:13:55;4.33;;;2.00;;
24086;SDS011;22893;50.572;7.234;2023-02-15T01:16:19;4.65;;;2.35;;
24086;SDS011;22893;50.572;7.234;2023-02-15T01:18:48;4.08;;;2.15;;
24086;SDS011;22893;50.572;7.234;2023-02-15T01:21:17;3.25;;;2.02;;
24086;SDS011;22893;50.572;7.234;2023-02-15T01:23:47;4.03;;;2.00;;
24086;SDS011;22893;50.572;7.234;2023-02-15T01:26:15;4.15;;;2.05;;
24086;SDS011;22893;50.572;7.234;2023-02-15T01:28:44;4.22;;;2.25;;
24086;SDS011;22893;50.572;7.234;2023-02-15T01:31:13;5.50;;;2.25;;
24086;SDS011;22893;50.572;7.234;2023-02-15T01:33:42;6.35;;;2.35;;
24086;SDS011;22893;50.572;7.234;2023-02-15T01:36:10;3.60;;;2.00;;
24086;SDS011;22893;50.572;7.234;2023-02-15T01:38:38;4.53;;;2.15;;
24086;SDS011;22893;50.572;7.234;2023-02-15T01:41:05;3.62;;;2.20;;
24086;SDS011;22893;50.572;7.234;2023-02-15T01:43:54;3.55;;;1.98;;
24086;SDS011;22893;50.572;7.234;2023-02-15T01:46:37;6.00;;;2.42;;
24086;SDS011;22893;50.572;7.234;2023-02-15T01:49:14;4.05;;;2.08;;
24086;SDS011;22893;50.572;7.234;2023-02-15T01:51:43;4.75;;;2.47;;
24086;SDS011;22893;50.572;7.234;2023-02-15T01:54:15;4.50;;;1.95;;
24086;SDS011;22893;50.572;7.234;2023-02-15T01:56:46;4.50;;;2.20;;
24086;SDS011;22893;50.572;7.234;2023-02-15T01:59:15;3.60;;;1.98;;
24086;SDS011;22893;50.572;7.234;2023-02-15T02:01:45;6.40;;;2.40;;
24086;SDS011;22893;50.572;7.234;2023-02-15T02:04:15;4.58;;;2.30;;
24086;SDS011;22893;50.572;7.234;2023-02-15T02:07:02;3.70;;;2.10;;
24086;SDS011;22893;50.572;7.234;2023-02-15T02:09:31;2.95;;;2.30;;
24086;SDS011;22893;50.572;7.234;2023-02-15T02:11:59;3.22;;;1.98;;
24086;SDS011;22893;50.572;7.234;2023-02-15T02:14:27;4.72;;;2.55;;
24086;SDS011;22893;50.572;7.234;2023-02-15T02:17:02;3.08;;;2.15;;
24086;SDS011;22893;50.572;7.234;2023-02-15T02:33:39;4.00;;;2.00;;
24086;SDS011;22893;50.572;7.234;2023-02-15T02:36:22;4.28;;;2.17;;
24086;SDS011;22893;50.572;7.234;2023-02-15T02:41:55;4.08;;;2.30;;
24086;SDS011;22893;50.572;7.234;2023-02-15T02:49:45;5.40;;;2.52;;
24086;SDS011;22893;50.572;7.234;2023-02-15T02:55:16;3.60;;;2.15;;
24086;SDS011;22893;50.572;7.234;2023-02-15T02:57:55;4.12;;;2.05;;
24086;SDS011;22893;50.572;7.234;2023-02-15T03:00:48;3.58;;;1.72;;
24086;SDS011;22893;50.572;7.234;2023-02-15T03:06:01;3.40;;;1.70;;
24086;SDS011;22893;50.572;7.234;2023-02-15T03:08:28;3.45;;;2.10;;
24086;SDS011;22893;50.572;7.234;2023-02-15T03:10:58;2.55;;;1.80;;
24086;SDS011;22893;50.572;7.234;2023-02-15T03:13:30;3.95;;;2.42;;
24086;SDS011;22893;50.572;7.234;2023-02-15T03:16:00;2.92;;;1.85;;
24086;SDS011;22893;50.572;7.234;2023-02-15T03:18:47;3.65;;;1.92;;
24086;SDS011;22893;50.572;7.234;2023-02-15T03:21:21;2.80;;;1.82;;
24086;SDS011;22893;50.572;7.234;2023-02-15T03:24:04;3.85;;;2.00;;
24086;SDS011;22893;50.572;7.234;2023-02-15T03:26:32;3.10;;;1.98;;
24086;SDS011;22893;50.572;7.234;2023-02-15T03:29:01;2.80;;;1.52;;
24086;SDS011;22893;50.572;7.234;2023-02-15T03:31:32;4.00;;;2.00;;
24086;SDS011;22893;50.572;7.234;2023-02-15T03:34:03;4.08;;;2.05;;
24086;SDS011;22893;50.572;7.234;2023-02-15T03:36:42;4.00;;;2.00;;
24086;SDS011;22893;50.572;7.234;2023-02-15T03:39:30;3.33;;;1.72;;
24086;SDS011;22893;50.572;7.234;2023-02-15T03:42:04;3.70;;;1.95;;
24086;SDS011;22893;50.572;7.234;2023-02-15T03:44:32;2.80;;;1.77;;
24086;SDS011;22893;50.572;7.234;2023-02-15T03:47:06;2.72;;;1.37;;
24086;SDS011;22893;50.572;7.234;2023-02-15T03:49:43;3.25;;;1.60;;
24086;SDS011;22893;50.572;7.234;2023-02-15T03:52:21;4.15;;;2.00;;
24086;SDS011;22893;50.572;7.234;2023-02-15T03:54:52;3.27;;;1.52;;
24086;SDS011;22893;50.572;7.234;2023-02-15T03:57:22;3.98;;;1.90;;
24086;SDS011;22893;50.572;7.234;2023-02-15T04:00:16;3.72;;;2.00;;
24086;SDS011;22893;50.572;7.234;2023-02-15T04:05:41;3.30;;;1.50;;
24086;SDS011;22893;50.572;7.234;2023-02-15T04:08:09;2.98;;;1.42;;
24086;SDS011;22893;50.572;7.234;2023-02-15T04:10:38;3.65;;;1.85;;
24086;SDS011;22893;50.572;7.234;2023-02-15T04:13:23;4.37;;;2.00;;
24086;SDS011;22893;50.572;7.234;2023-02-15T04:15:53;3.60;;;1.90;;
24086;SDS011;22893;50.572;7.234;2023-02-15T04:18:30;3.62;;;1.67;;
24086;SDS011;22893;50.572;7.234;2023-02-15T04:21:17;2.58;;;1.70;;
24086;SDS011;22893;50.572;7.234;2023-02-15T04:24:04;4.62;;;1.72;;
24086;SDS011;22893;50.572;7.234;2023-02-15T04:26:49;2.92;;;1.77;;
24086;SDS011;22893;50.572;7.234;2023-02-15T04:29:20;2.83;;;1.60;;
24086;SDS011;22893;50.572;7.234;2023-02-15T04:31:49;3.52;;;1.75;;
24086;SDS011;22893;50.572;7.234;2023-02-15T04:34:18;2.45;;;1.47;;
24086;SDS011;22893;50.572;7.234;2023-02-15T04:36:45;3.90;;;1.62;;
24086;SDS011;22893;50.572;7.234;2023-02-15T04:39:13;3.95;;;2.02;;
24086;SDS011;22893;50.572;7.234;2023-02-15T04:41:42;2.90;;;1.60;;
24086;SDS011;22893;50.572;7.234;2023-02-15T04:44:09;3.80;;;1.87;;
24086;SDS011;22893;50.572;7.234;2023-02-15T04:46:37;8.18;;;3.30;;
24086;SDS011;22893;50.572;7.234;2023-02-15T04:49:05;5.50;;;3.30;;
24086;SDS011;22893;50.572;7.234;2023-02-15T04:51:32;3.05;;;1.57;;
24086;SDS011;22893;50.572;7.234;2023-02-15T04:54:00;4.00;;;1.80;;
24086;SDS011;22893;50.572;7.234;2023-02-15T04:56:27;3.05;;;1.60;;
24086;SDS011;22893;50.572;7.234;2023-02-15T04:58:55;2.98;;;1.55;;
24086;SDS011;22893;50.572;7.234;2023-02-15T05:01:23;4.37;;;1.50;;
24086;SDS011;22893;50.572;7.234;2023-02-15T05:03:51;4.03;;;2.52;;
24086;SDS011;22893;50.572;7.234;2023-02-15T05:06:18;3.15;;;1.60;;
24086;SDS011;22893;50.572;7.234;2023-02-15T05:08:46;10.95;;;1.87;;
24086;SDS011;22893;50.572;7.234;2023-02-15T05:11:13;4.05;;;1.87;;
24086;SDS011;22893;50.572;7.234;2023-02-15T05:13:41;3.80;;;1.60;;
24086;SDS011;22893;50.572;7.234;2023-02-15T05:16:08;4.08;;;1.90;;
24086;SDS011;22893;50.572;7.234;2023-02-15T05:18:36;3.45;;;2.37;;
24086;SDS011;22893;50.572;7.234;2023-02-15T05:21:03;4.20;;;1.90;;
24086;SDS011;22893;50.572;7.234;2023-02-15T05:23:31;3.10;;;1.72;;
24086;SDS011;22893;50.572;7.234;2023-02-15T05:25:59;2.83;;;1.52;;
24086;SDS011;22893;50.572;7.234;2023-02-15T05:28:44;3.62;;;1.82;;
24086;SDS011;22893;50.572;7.234;2023-02-15T05:31:13;8.15;;;2.00;;
24086;SDS011;22893;50.572;7.234;2023-02-15T05:33:42;2.87;;;1.40;;
24086;SDS011;22893;50.572;7.234;2023-02-15T05:36:10;4.20;;;1.65;;
24086;SDS011;22893;50.572;7.234;2023-02-15T05:38:39;3.33;;;1.52;;
24086;SDS011;22893;50.572;7.234;2023-02-15T05:41:07;5.28;;;1.42;;
24086;SDS011;22893;50.572;7.234;2023-02-15T05:43:36;4.00;;;1.90;;
24086;SDS011;22893;50.572;7.234;2023-02-15T05:46:04;4.58;;;2.00;;
24086;SDS011;22893;50.572;7.234;2023-02-15T05:48:32;5.92;;;1.72;;
24086;SDS011;22893;50.572;7.234;2023-02-15T05:53:32;4.00;;;2.50;;
24086;SDS011;22893;50.572;7.234;2023-02-15T05:56:01;4.87;;;1.45;;
24086;SDS011;22893;50.572;7.234;2023-02-15T05:58:35;3.22;;;1.47;;
24086;SDS011;22893;50.572;7.234;2023-02-15T06:01:22;3.10;;;1.80;;
24086;SDS011;22893;50.572;7.234;2023-02-15T06:03:40;3.25;;;1.45;;
24086;SDS011;22893;50.572;7.234;2023-02-15T06:06:08;4.00;;;1.65;;
24086;SDS011;22893;50.572;7.234;2023-02-15T06:08:37;3.22;;;1.80;;
24086;SDS011;22893;50.572;7.234;2023-02-15T06:11:05;5.83;;;2.05;;
24086;SDS011;22893;50.572;7.234;2023-02-15T06:13:33;4.83;;;1.57;;
24086;SDS011;22893;50.572;7.234;2023-02-15T06:16:01;3.90;;;1.50;;
24086;SDS011;22893;50.572;7.234;2023-02-15T06:18:29;3.62;;;1.35;;
24086;SDS011;22893;50.572;7.234;2023-02-15T06:20:56;6.78;;;1.70;;
24086;SDS011;22893;50.572;7.234;2023-02-15T06:23:24;4.62;;;2.20;;
24086;SDS011;22893;50.572;7.234;2023-02-15T06:25:52;3.58;;;1.60;;
24086;SDS011;22893;50.572;7.234;2023-02-15T06:28:19;2.77;;;1.57;;
24086;SDS011;22893;50.572;7.234;2023-02-15T06:30:47;13.75;;;2.37;;
24086;SDS011;22893;50.572;7.234;2023-02-15T06:33:14;3.87;;;1.40;;
24086;SDS011;22893;50.572;7.234;2023-02-15T06:35:42;2.77;;;1.20;;
24086;SDS011;22893;50.572;7.234;2023-02-15T06:38:09;2.50;;;1.20;;
24086;SDS011;22893;50.572;7.234;2023-02-15T06:40:37;2.92;;;0.88;;
24086;SDS011;22893;50.572;7.234;2023-02-15T06:43:04;3.70;;;1.20;;
24086;SDS011;22893;50.572;7.234;2023-02-15T06:45:32;2.75;;;1.32;;
24086;SDS011;22893;50.572;7.234;2023-02-15T06:48:00;6.05;;;1.70;;
24086;SDS011;22893;50.572;7.234;2023-02-15T06:50:27;5.17;;;1.95;;
24086;SDS011;22893;50.572;7.234;2023-02-15T06:52:55;5.05;;;1.40;;
24086;SDS011;22893;50.572;7.234;2023-02-15T06:55:24;6.50;;;1.55;;
24086;SDS011;22893;50.572;7.234;2023-02-15T06:57:52;5.00;;;1.65;;
24086;SDS011;22893;50.572;7.234;2023-02-15T07:00:19;2.55;;;1.55;;
24086;SDS011;22893;50.572;7.234;2023-02-15T07:02:55;5.25;;;1.55;;
24086;SDS011;22893;50.572;7.234;2023-02-15T07:05:24;2.72;;;1.15;;
24086;SDS011;22893;50.572;7.234;2023-02-15T07:07:57;1.95;;;1.25;;
24086;SDS011;22893;50.572;7.234;2023-02-15T07:10:25;3.22;;;1.20;;
24086;SDS011;22893;50.572;7.234;2023-02-15T07:12:53;3.10;;;1.20;;
24086;SDS011;22893;50.572;7.234;2023-02-15T07:15:20;4.12;;;2.17;;
24086;SDS011;22893;50.572;7.234;2023-02-15T07:17:48;5.80;;;1.67;;
24086;SDS011;22893;50.572;7.234;2023-02-15T07:20:17;3.60;;;1.50;;
24086;SDS011;22893;50.572;7.234;2023-02-15T07:22:47;3.58;;;1.57;;
24086;SDS011;22893;50.572;7.234;2023-02-15T07:25:16;3.80;;;1.47;;
24086;SDS011;22893;50.572;7.234;2023-02-15T07:27:44;2.42;;;1.52;;
24086;SDS011;22893;50.572;7.234;2023-02-15T07:30:13;2.72;;;1.32;;
24086;SDS011;22893;50.572;7.234;2023-02-15T07:32:42;3.00;;;1.17;;
24086;SDS011;22893;50.572;7.234;2023-02-15T07:35:28;2.75;;;1.40;;
24086;SDS011;22893;50.572;7.234;2023-02-15T07:37:55;6.35;;;1.40;;
24086;SDS011;22893;50.572;7.234;2023-02-15T07:40:23;2.20;;;1.15;;
24086;SDS011;22893;50.572;7.234;2023-02-15T07:42:51;5.10;;;1.27;;
24086;SDS011;22893;50.572;7.234;2023-02-15T07:45:20;5.05;;;1.50;;
24086;SDS011;22893;50.572;7.234;2023-02-15T07:47:48;3.12;;;1.35;;
24086;SDS011;22893;50.572;7.234;2023-02-15T07:50:16;3.52;;;1.15;;
24086;SDS011;22893;50.572;7.234;2023-02-15T07:52:44;2.60;;;1.20;;
24086;SDS011;22893;50.572;7.234;2023-02-15T07:55:12;3.20;;;1.45;;
24086;SDS011;22893;50.572;7.234;2023-02-15T07:57:46;2.72;;;1.80;;
24086;SDS011;22893;50.572;7.234;2023-02-15T08:00:20;1.98;;;1.30;;
24086;SDS011;22893;50.572;7.234;2023-02-15T08:02:55;2.40;;;1.30;;
24086;SDS011;22893;50.572;7.234;2023-02-15T08:05:21;2.65;;;1.32;;
24086;SDS011;22893;50.572;7.234;2023-02-15T08:07:48;5.28;;;1.67;;
24086;SDS011;22893;50.572;7.234;2023-02-15T08:10:16;3.50;;;1.30;;
24086;SDS011;22893;50.572;7.234;2023-02-15T08:12:45;2.83;;;1.27;;
24086;SDS011;22893;50.572;7.234;2023-02-15T08:15:12;1.87;;;1.25;;
24086;SDS011;22893;50.572;7.234;2023-02-15T08:17:40;3.22;;;1.02;;
24086;SDS011;22893;50.572;7.234;2023-02-15T08:20:08;5.58;;;1.45;;
24086;SDS011;22893;50.572;7.234;2023-02-15T08:22:36;1.75;;;1.00;;
24086;SDS011;22893;50.572;7.234;2023-02-15T08:25:03;7.10;;;1.40;;
24086;SDS011;22893;50.572;7.234;2023-02-15T08:27:31;4.65;;;1.17;;
24086;SDS011;22893;50.572;7.234;2023-02-15T08:29:59;4.87;;;1.57;;
24086;SDS011;22893;50.572;7.234;2023-02-15T08:32:26;4.78;;;1.65;;
24086;SDS011;22893;50.572;7.234;2023-02-15T08:34:54;2.70;;;1.40;;
24086;SDS011;22893;50.572;7.234;2023-02-15T08:37:21;3.37;;;1.52;;
24086;SDS011;22893;50.572;7.234;2023-02-15T08:39:49;2.58;;;1.20;;
24086;SDS011;22893;50.572;7.234;2023-02-15T08:42:17;3.98;;;1.47;;
24086;SDS011;22893;50.572;7.234;2023-02-15T08:44:46;3.95;;;1.55;;
24086;SDS011;22893;50.572;7.234;2023-02-15T08:47:15;5.22;;;1.72;;
24086;SDS011;22893;50.572;7.234;2023-02-15T08:49:43;5.03;;;1.45;;
24086;SDS011;22893;50.572;7.234;2023-02-15T08:52:11;3.95;;;1.75;;
24086;SDS011;22893;50.572;7.234;2023-02-15T08:54:38;3.35;;;1.87;;
24086;SDS011;22893;50.572;7.234;2023-02-15T08:57:06;2.72;;;1.37;;
24086;SDS011;22893;50.572;7.234;2023-02-15T08:59:33;2.80;;;1.82;;
24086;SDS011;22893;50.572;7.234;2023-02-15T09:02:01;6.35;;;2.33;;
24086;SDS011;22893;50.572;7.234;2023-02-15T09:04:28;2.08;;;1.42;;
24086;SDS011;22893;50.572;7.234;2023-02-15T09:06:56;2.65;;;1.60;;
24086;SDS011;22893;50.572;7.234;2023-02-15T09:09:23;3.80;;;1.70;;
24086;SDS011;22893;50.572;7.234;2023-02-15T09:11:51;2.15;;;1.30;;
24086;SDS011;22893;50.572;7.234;2023-02-15T09:14:20;3.25;;;1.57;;
24086;SDS011;22893;50.572;7.234;2023-02-15T09:16:49;4.30;;;1.45;;
24086;SDS011;22893;50.572;7.234;2023-02-15T09:19:18;2.77;;;1.25;;
24086;SDS011;22893;50.572;7.234;2023-02-15T09:21:47;2.37;;;1.32;;
24086;SDS011;22893;50.572;7.234;2023-02-15T09:24:15;3.37;;;1.45;;
24086;SDS011;22893;50.572;7.234;2023-02-15T09:26:45;2.90;;;1.32;;
24086;SDS011;22893;50.572;7.234;2023-02-15T09:29:14;2.58;;;1.55;;
24086;SDS011;22893;50.572;7.234;2023-02-15T09:31:44;2.45;;;1.60;;
24086;SDS011;22893;50.572;7.234;2023-02-15T09:34:14;2.95;;;1.47;;
24086;SDS011;22893;50.572;7.234;2023-02-15T09:36:43;3.50;;;1.35;;
24086;SDS011;22893;50.572;7.234;2023-02-15T09:39:13;3.90;;;1.40;;
24086;SDS011;22893;50.572;7.234;2023-02-15T09:55:35;1.52;;;1.02;;
24086;SDS011;22893;50.572;7.234;2023-02-15T10:11:45;3.87;;;1.87;;
24086;SDS011;22893;50.572;7.234;2023-02-15T10:16:56;8.35;;;2.33;;
24086;SDS011;22893;50.572;7.234;2023-02-15T16:27:56;5.67;;;2.02;;
24086;SDS011;22893;50.572;7.234;2023-02-15T16:30:32;7.10;;;1.67;;
24086;SDS011;22893;50.572;7.234;2023-02-15T16:33:11;3.92;;;1.55;;
24086;SDS011;22893;50.572;7.234;2023-02-15T16:35:55;8.38;;;1.87;;
24086;SDS011;22893;50.572;7.234;2023-02-15T16:39:09;6.05;;;1.98;;
24086;SDS011;22893;50.572;7.234;2023-02-15T16:41:11;4.62;;;1.95;;
24086;SDS011;22893;50.572;7.234;2023-02-15T16:43:45;4.60;;;2.40;;
24086;SDS011;22893;50.572;7.234;2023-02-15T16:46:27;4.42;;;2.37;;
24086;SDS011;22893;50.572;7.234;2023-02-15T16:48:58;3.98;;;1.95;;
24086;SDS011;22893;50.572;7.234;2023-02-15T16:51:31;6.47;;;2.20;;
24086;SDS011;22893;50.572;7.234;2023-02-15T16:54:06;3.27;;;2.50;;
24086;SDS011;22893;50.572;7.234;2023-02-15T16:56:34;4.90;;;2.00;;
24086;SDS011;22893;50.572;7.234;2023-02-15T16:59:02;5.33;;;1.75;;
24086;SDS011;22893;50.572;7.234;2023-02-15T17:01:30;2.83;;;2.00;;
24086;SDS011;22893;50.572;7.234;2023-02-15T17:04:13;8.73;;;2.50;;
24086;SDS011;22893;50.572;7.234;2023-02-15T17:06:59;4.40;;;2.27;;
24086;SDS011;22893;50.572;7.234;2023-02-15T17:09:31;6.15;;;2.50;;
24086;SDS011;22893;50.572;7.234;2023-02-15T17:11:59;4.35;;;2.40;;
24086;SDS011;22893;50.572;7.234;2023-02-15T17:14:31;2.72;;;1.45;;
24086;SDS011;22893;50.572;7.234;2023-02-15T17:17:06;3.27;;;1.77;;
24086;SDS011;22893;50.572;7.234;2023-02-15T17:19:52;6.17;;;2.08;;
24086;SDS011;22893;50.572;7.234;2023-02-15T17:22:23;4.17;;;2.05;;
24086;SDS011;22893;50.572;7.234;2023-02-15T17:24:59;5.65;;;2.42;;
24086;SDS011;22893;50.572;7.234;2023-02-15T17:27:29;9.00;;;2.40;;
24086;SDS011;22893;50.572;7.234;2023-02-15T17:30:04;9.10;;;2.58;;
24086;SDS011;22893;50.572;7.234;2023-02-15T17:32:33;3.40;;;1.82;;
24086;SDS011;22893;50.572;7.234;2023-02-15T17:35:07;9.75;;;2.67;;
24086;SDS011;22893;50.572;7.234;2023-02-15T17:40:19;15.88;;;2.83;;
24086;SDS011;22893;50.572;7.234;2023-02-15T17:42:49;6.40;;;2.85;;
24086;SDS011;22893;50.572;7.234;2023-02-15T17:45:18;7.75;;;2.20;;
24086;SDS011;22893;50.572;7.234;2023-02-15T17:47:47;11.22;;;2.50;;
24086;SDS011;22893;50.572;7.234;2023-02-15T17:50:22;10.68;;;2.45;;
24086;SDS011;22893;50.572;7.234;2023-02-15T17:52:52;9.18;;;2.65;;
24086;SDS011;22893;50.572;7.234;2023-02-15T17:55:22;7.10;;;2.15;;
24086;SDS011;22893;50.572;7.234;2023-02-15T17:58:00;6.72;;;2.20;;
24086;SDS011;22893;50.572;7.234;2023-02-15T18:00:30;11.60;;;2.77;;
24086;SDS011;22893;50.572;7.234;2023-02-15T18:03:17;7.12;;;3.60;;
24086;SDS011;22893;50.572;7.234;2023-02-15T18:06:03;9.75;;;2.67;;
24086;SDS011;22893;50.572;7.234;2023-02-15T18:08:49;10.98;;;3.08;;
24086;SDS011;22893;50.572;7.234;2023-02-15T18:11:34;6.83;;;2.25;;
24086;SDS011;22893;50.572;7.234;2023-02-15T18:14:10;7.50;;;2.95;;
24086;SDS011;22893;50.572;7.234;2023-02-15T18:16:39;8.05;;;3.08;;
24086;SDS011;22893;50.572;7.234;2023-02-15T18:19:09;13.43;;;2.77;;
24086;SDS011;22893;50.572;7.234;2023-02-15T18:21:44;12.00;;;3.10;;
24086;SDS011;22893;50.572;7.234;2023-02-15T18:24:17;5.35;;;2.00;;
24086;SDS011;22893;50.572;7.234;2023-02-15T18:26:46;6.83;;;2.87;;
24086;SDS011;22893;50.572;7.234;2023-02-15T18:29:14;10.68;;;3.60;;
24086;SDS011;22893;50.572;7.234;2023-02-15T18:31:42;5.42;;;2.22;;
24086;SDS011;22893;50.572;7.234;2023-02-15T18:34:23;6.95;;;2.65;;
24086;SDS011;22893;50.572;7.234;2023-02-15T18:36:52;6.12;;;2.20;;
24086;SDS011;22893;50.572;7.234;2023-02-15T18:41:57;8.58;;;2.87;;
24086;SDS011;22893;50.572;7.234;2023-02-15T18:44:24;11.63;;;1.98;;
24086;SDS011;22893;50.572;7.234;2023-02-15T18:46:52;10.53;;;2.20;;
24086;SDS011;22893;50.572;7.234;2023-02-15T18:49:20;5.65;;;2.50;;
24086;SDS011;22893;50.572;7.234;2023-02-15T18:51:48;7.33;;;3.25;;
24086;SDS011;22893;50.572;7.234;2023-02-15T18:54:20;7.17;;;2.72;;
24086;SDS011;22893;50.572;7.234;2023-02-15T18:56:54;9.50;;;2.40;;
24086;SDS011;22893;50.572;7.234;2023-02-15T18:59:22;5.10;;;3.15;;
24086;SDS011;22893;50.572;7.234;2023-02-15T19:01:51;4.42;;;2.52;;
24086;SDS011;22893;50.572;7.234;2023-02-15T19:04:20;5.70;;;2.12;;
24086;SDS011;22893;50.572;7.234;2023-02-15T19:06:48;4.60;;;2.80;;
24086;SDS011;22893;50.572;7.234;2023-02-15T19:09:17;4.67;;;2.20;;
24086;SDS011;22893;50.572;7.234;2023-02-15T19:11:52;6.85;;;2.15;;
24086;SDS011;22893;50.572;7.234;2023-02-15T19:14:23;10.20;;;3.40;;
24086;SDS011;22893;50.572;7.234;2023-02-15T19:16:58;8.80;;;2.45;;
24086;SDS011;22893;50.572;7.234;2023-02-15T19:19:26;9.05;;;2.95;;
24086;SDS011;22893;50.572;7.234;2023-02-15T19:21:54;4.20;;;2.27;;
24086;SDS011;22893;50.572;7.234;2023-02-15T19:24:23;5.50;;;2.95;;
24086;SDS011;22893;50.572;7.234;2023-02-15T19:26:52;4.60;;;2.62;;
24086;SDS011;22893;50.572;7.234;2023-02-15T19:29:28;5.40;;;2.30;;
24086;SDS011;22893;50.572;7.234;2023-02-15T19:31:53;8.78;;;2.85;;
24086;SDS011;22893;50.572;7.234;2023-02-15T19:34:21;6.28;;;2.45;;
24086;SDS011;22893;50.572;7.234;2023-02-15T19:36:50;5.20;;;2.62;;
24086;SDS011;22893;50.572;7.234;2023-02-15T19:41:52;6.10;;;2.90;;
24086;SDS011;22893;50.572;7.234;2023-02-15T19:44:20;7.00;;;2.37;;
24086;SDS011;22893;50.572;7.234;2023-02-15T19:46:47;5.87;;;2.30;;
24086;SDS011;22893;50.572;7.234;2023-02-15T19:49:15;6.22;;;2.65;;
24086;SDS011;22893;50.572;7.234;2023-02-15T19:51:44;8.00;;;2.55;;
24086;SDS011;22893;50.572;7.234;2023-02-15T19:54:16;7.10;;;2.33;;
24086;SDS011;22893;50.572;7.234;2023-02-15T19:56:52;9.78;;;3.10;;
24086;SDS011;22893;50.572;7.234;2023-02-15T20:01:55;5.80;;;2.80;;
24086;SDS011;22893;50.572;7.234;2023-02-15T20:04:23;6.22;;;2.75;;
24086;SDS011;22893;50.572;7.234;2023-02-15T20:06:53;7.67;;;2.90;;
24086;SDS011;22893;50.572;7.234;2023-02-15T20:09:27;11.55;;;3.47;;
24086;SDS011;22893;50.572;7.234;2023-02-15T20:11:53;8.73;;;2.77;;
24086;SDS011;22893;50.572;7.234;2023-02-15T20:14:21;11.90;;;3.35;;
24086;SDS011;22893;50.572;7.234;2023-02-15T20:16:49;9.10;;;3.15;;
24086;SDS011;22893;50.572;7.234;2023-02-15T20:19:17;9.43;;;3.90;;
24086;SDS011;22893;50.572;7.234;2023-02-15T20:21:45;4.40;;;2.60;;
24086;SDS011;22893;50.572;7.234;2023-02-15T20:24:19;9.68;;;3.70;;
24086;SDS011;22893;50.572;7.234;2023-02-15T20:26:48;19.80;;;9.25;;
24086;SDS011;22893;50.572;7.234;2023-02-15T20:29:16;32.63;;;15.78;;
24086;SDS011;22893;50.572;7.234;2023-02-15T20:31:44;53.48;;;24.35;;
24086;SDS011;22893;50.572;7.234;2023-02-15T20:34:12;54.20;;;29.85;;
24086;SDS011;22893;50.572;7.234;2023-02-15T20:36:39;61.95;;;27.37;;
24086;SDS011;22893;50.572;7.234;2023-02-15T20:39:15;55.90;;;27.30;;
24086;SDS011;22893;50.572;7.234;2023-02-15T20:41:41;63.08;;;24.47;;
24086;SDS011;22893;50.572;7.234;2023-02-15T20:44:17;52.10;;;23.67;;
24086;SDS011;22893;50.572;7.234;2023-02-15T20:46:49;52.53;;;21.77;;
24086;SDS011;22893;50.572;7.234;2023-02-15T20:49:19;46.73;;;20.25;;
24086;SDS011;22893;50.572;7.234;2023-02-15T20:51:50;40.45;;;22.45;;
24086;SDS011;22893;50.572;7.234;2023-02-15T20:54:25;47.78;;;20.85;;
24086;SDS011;22893;50.572;7.234;2023-02-15T20:56:50;41.02;;;19.35;;
24086;SDS011;22893;50.572;7.234;2023-02-15T20:59:20;38.83;;;19.70;;
24086;SDS011;22893;50.572;7.234;2023-02-15T21:01:50;43.42;;;19.98;;
24086;SDS011;22893;50.572;7.234;2023-02-15T21:04:21;43.90;;;20.10;;
24086;SDS011;22893;50.572;7.234;2023-02-15T21:06:50;38.67;;;19.32;;
24086;SDS011;22893;50.572;7.234;2023-02-15T21:09:17;38.28;;;17.77;;
24086;SDS011;22893;50.572;7.234;2023-02-15T21:11:45;36.33;;;16.97;;
24086;SDS011;22893;50.572;7.234;2023-02-15T21:14:15;33.45;;;17.60;;
24086;SDS011;22893;50.572;7.234;2023-02-15T21:16:48;32.05;;;16.90;;
24086;SDS011;22893;50.572;7.234;2023-02-15T21:19:17;35.95;;;17.98;;
24086;SDS011;22893;50.572;7.234;2023-02-15T21:21:48;36.70;;;15.63;;
24086;SDS011;22893;50.572;7.234;2023-02-15T21:24:19;27.22;;;13.78;;
24086;SDS011;22893;50.572;7.234;2023-02-15T21:26:51;27.32;;;14.03;;
24086;SDS011;22893;50.572;7.234;2023-02-15T21:29:21;27.60;;;12.90;;
24086;SDS011;22893;50.572;7.234;2023-02-15T21:31:50;28.77;;;12.43;;
24086;SDS011;22893;50.572;7.234;2023-02-15T21:34:18;23.30;;;11.12;;
24086;SDS011;22893;50.572;7.234;2023-02-15T21:36:46;21.87;;;10.95;;
24086;SDS011;22893;50.572;7.234;2023-02-15T21:39:23;20.82;;;9.53;;
24086;SDS011;22893;50.572;7.234;2023-02-15T21:41:49;21.62;;;9.58;;
24086;SDS011;22893;50.572;7.234;2023-02-15T21:44:36;19.02;;;8.25;;
24086;SDS011;22893;50.572;7.234;2023-02-15T21:47:27;27.60;;;9.58;;
24086;SDS011;22893;50.572;7.234;2023-02-15T21:50:12;19.67;;;8.30;;
24086;SDS011;22893;50.572;7.234;2023-02-15T21:52:59;16.55;;;7.90;;
24086;SDS011;22893;50.572;7.234;2023-02-15T21:55:29;20.68;;;7.62;;
24086;SDS011;22893;50.572;7.234;2023-02-15T21:58:03;14.93;;;8.15;;
24086;SDS011;22893;50.572;7.234;2023-02-15T22:03:14;19.00;;;7.35;;
24086;SDS011;22893;50.572;7.234;2023-02-15T22:05:42;14.25;;;6.92;;
24086;SDS011;22893;50.572;7.234;2023-02-15T22:08:10;17.80;;;6.35;;
24086;SDS011;22893;50.572;7.234;2023-02-15T22:10:38;14.05;;;7.03;;
24086;SDS011;22893;50.572;7.234;2023-02-15T22:13:12;17.90;;;7.15;;
24086;SDS011;22893;50.572;7.234;2023-02-15T22:15:41;14.93;;;7.22;;
24086;SDS011;22893;50.572;7.234;2023-02-15T22:18:17;14.10;;;6.62;;
24086;SDS011;22893;50.572;7.234;2023-02-15T22:20:50;15.98;;;6.72;;
24086;SDS011;22893;50.572;7.234;2023-02-15T22:23:18;16.80;;;6.15;;
24086;SDS011;22893;50.572;7.234;2023-02-15T22:25:54;17.42;;;6.40;;
24086;SDS011;22893;50.572;7.234;2023-02-15T22:28:26;11.50;;;5.83;;
